createdAt,value
2022-08-24T00:00:05.241Z,1016.33
2022-08-24T00:02:02.565Z,1016.33
2022-08-24T00:04:04.146Z,1016.23
2022-08-24T00:06:02.183Z,1016.23
2022-08-24T00:08:02.406Z,1016.19
2022-08-24T00:10:02.608Z,1016.19
2022-08-24T00:12:01.803Z,1016.23
2022-08-24T00:14:01.696Z,1016.23
2022-08-24T00:16:01.761Z,1016.23
2022-08-24T00:18:02.796Z,1016.23
2022-08-24T00:20:02.453Z,1016.27
2022-08-24T00:22:01.865Z,1016.27
2022-08-24T00:24:03.448Z,1016.2
2022-08-24T00:26:01.846Z,1016.2
2022-08-24T00:28:02.683Z,1016.28
2022-08-24T00:30:01.998Z,1016.28
2022-08-24T00:32:02.295Z,1016.32
2022-08-24T00:34:02.491Z,1016.32
2022-08-24T00:36:02.087Z,1016.21
2022-08-24T00:38:02.906Z,1016.21
2022-08-24T00:40:01.996Z,1016.22
2022-08-24T00:42:02.304Z,1016.22
2022-08-24T00:44:02.589Z,1016.19
2022-08-24T00:46:02.498Z,1016.19
2022-08-24T00:48:02.276Z,1016.22
2022-08-24T00:50:02.505Z,1016.22
2022-08-24T00:52:03.881Z,1016.04
2022-08-24T00:54:01.816Z,1016.04
2022-08-24T00:56:01.844Z,1016.09
2022-08-24T00:58:02.805Z,1016.09
2022-08-24T01:00:08.788Z,1016.25
2022-08-24T01:02:16.081Z,1016.25
2022-08-24T01:04:02.243Z,1016.2
2022-08-24T01:06:01.776Z,1016.2
2022-08-24T01:08:02.911Z,1016.19
2022-08-24T01:10:02.251Z,1016.19
2022-08-24T01:12:02.563Z,1016.14
2022-08-24T01:14:02.564Z,1016.14
2022-08-24T01:16:01.927Z,1016.15
2022-08-24T01:18:02.587Z,1016.15
2022-08-24T01:20:01.910Z,1016.22
2022-08-24T01:22:01.581Z,1016.22
2022-08-24T01:24:01.672Z,1016.14
2022-08-24T01:26:03.375Z,1016.14
2022-08-24T01:28:05.552Z,1016.31
2022-08-24T01:30:02.557Z,1016.31
2022-08-24T01:32:02.335Z,1016.24
2022-08-24T01:34:05.371Z,1016.24
2022-08-24T01:36:01.787Z,1016.44
2022-08-24T01:38:02.682Z,1016.44
2022-08-24T01:40:02.612Z,1016.4
2022-08-24T01:42:02.197Z,1016.4
2022-08-24T01:44:02.538Z,1016.4
2022-08-24T01:46:01.721Z,1016.4
2022-08-24T01:48:02.500Z,1016.43
2022-08-24T01:50:02.370Z,1016.42
2022-08-24T01:52:02.505Z,1016.42
2022-08-24T01:54:02.257Z,1016.46
2022-08-24T01:56:01.743Z,1016.46
2022-08-24T01:58:01.735Z,1016.48
2022-08-24T02:00:05.742Z,1016.48
2022-08-24T02:02:01.849Z,1016.33
2022-08-24T02:04:01.628Z,1016.33
2022-08-24T02:06:02.522Z,1016.45
2022-08-24T02:08:01.641Z,1016.45
2022-08-24T02:10:02.103Z,1016.38
2022-08-24T02:12:01.803Z,1016.38
2022-08-24T02:14:01.804Z,1016.41
2022-08-24T02:16:02.547Z,1016.41
2022-08-24T02:18:01.910Z,1016.4
2022-08-24T02:20:01.855Z,1016.4
2022-08-24T02:22:02.378Z,1016.44
2022-08-24T02:24:01.784Z,1016.44
2022-08-24T02:26:02.222Z,1016.35
2022-08-24T02:28:01.937Z,1016.35
2022-08-24T02:30:01.791Z,1016.41
2022-08-24T02:32:02.360Z,1016.41
2022-08-24T02:34:01.879Z,1016.31
2022-08-24T02:36:04.147Z,1016.31
2022-08-24T02:38:01.757Z,1016.32
2022-08-24T02:40:04.105Z,1016.32
2022-08-24T02:42:01.878Z,1016.23
2022-08-24T02:44:02.169Z,1016.23
2022-08-24T02:46:02.444Z,1016.33
2022-08-24T02:48:01.845Z,1016.33
2022-08-24T02:50:02.611Z,1016.39
2022-08-24T02:52:01.622Z,1016.39
2022-08-24T02:54:02.549Z,1016.26
2022-08-24T02:56:02.352Z,1016.26
2022-08-24T02:58:01.778Z,1016.37
2022-08-24T03:00:10.693Z,1016.37
2022-08-24T03:02:01.907Z,1016.39
2022-08-24T03:04:01.911Z,1016.39
2022-08-24T03:06:02.443Z,1016.3
2022-08-24T03:08:03.944Z,1016.3
2022-08-24T03:10:02.673Z,1016.31
2022-08-24T03:12:02.425Z,1016.31
2022-08-24T03:14:02.511Z,1016.36
2022-08-24T03:16:02.598Z,1016.36
2022-08-24T03:18:01.637Z,1016.39
2022-08-24T03:20:02.299Z,1016.39
2022-08-24T03:22:02.617Z,1016.33
2022-08-24T03:24:01.706Z,1016.33
2022-08-24T03:26:02.537Z,1016.43
2022-08-24T03:28:03.884Z,1016.43
2022-08-24T03:30:02.598Z,1016.28
2022-08-24T03:32:02.516Z,1016.28
2022-08-24T03:34:02.395Z,1016.34
2022-08-24T03:36:01.855Z,1016.34
2022-08-24T03:38:02.304Z,1016.35
2022-08-24T03:40:02.273Z,1016.35
2022-08-24T03:42:02.375Z,1016.31
2022-08-24T03:44:01.771Z,1016.31
2022-08-24T03:46:02.298Z,1016.28
2022-08-24T03:48:02.592Z,1016.28
2022-08-24T03:50:02.259Z,1016.27
2022-08-24T03:52:02.199Z,1016.27
2022-08-24T03:54:02.318Z,1016.37
2022-08-24T03:56:07.359Z,1016.37
2022-08-24T03:58:02.390Z,1016.39
2022-08-24T04:00:06.861Z,1016.39
2022-08-24T04:02:01.963Z,1016.43
2022-08-24T04:04:01.937Z,1016.43
2022-08-24T04:06:01.930Z,1016.33
2022-08-24T04:08:02.009Z,1016.33
2022-08-24T04:10:02.445Z,1016.4
2022-08-24T04:12:02.499Z,1016.4
2022-08-24T04:14:02.094Z,1016.4
2022-08-24T04:16:01.687Z,1016.4
2022-08-24T04:18:01.976Z,1016.49
2022-08-24T04:20:02.051Z,1016.49
2022-08-24T04:22:02.551Z,1016.37
2022-08-24T04:24:01.867Z,1016.37
2022-08-24T04:26:02.074Z,1016.54
2022-08-24T04:28:01.701Z,1016.54
2022-08-24T04:30:02.561Z,1016.39
2022-08-24T04:32:02.211Z,1016.39
2022-08-24T04:34:02.359Z,1016.52
2022-08-24T04:36:02.592Z,1016.52
2022-08-24T04:38:01.577Z,1016.64
2022-08-24T04:40:03.543Z,1016.64
2022-08-24T04:42:03.837Z,1016.62
2022-08-24T04:44:01.754Z,1016.62
2022-08-24T04:46:02.451Z,1016.56
2022-08-24T04:48:02.182Z,1016.56
2022-08-24T04:50:02.505Z,1016.57
2022-08-24T04:52:02.145Z,1016.57
2022-08-24T04:54:02.380Z,1016.59
2022-08-24T04:56:01.813Z,1016.59
2022-08-24T04:58:02.145Z,1016.71
2022-08-24T05:00:05.647Z,1016.71
2022-08-24T05:02:01.898Z,1016.68
2022-08-24T05:04:02.574Z,1016.68
2022-08-24T05:06:02.543Z,1016.52
2022-08-24T05:08:02.022Z,1016.52
2022-08-24T05:10:01.995Z,1016.52
2022-08-24T05:12:01.913Z,1016.58
2022-08-24T05:14:02.079Z,1016.58
2022-08-24T05:16:02.426Z,1016.53
2022-08-24T05:18:01.854Z,1016.53
2022-08-24T05:20:02.193Z,1016.58
2022-08-24T05:22:01.644Z,1016.58
2022-08-24T05:24:02.053Z,1016.7
2022-08-24T05:26:01.792Z,1016.7
2022-08-24T05:28:02.411Z,1016.73
2022-08-24T05:30:02.442Z,1016.73
2022-08-24T05:32:04.858Z,1016.79
2022-08-24T05:34:02.156Z,1016.79
2022-08-24T05:36:02.417Z,1016.64
2022-08-24T05:38:02.017Z,1016.64
2022-08-24T05:40:02.187Z,1016.69
2022-08-24T05:42:01.615Z,1016.69
2022-08-24T05:44:06.866Z,1016.76
2022-08-24T05:46:02.088Z,1016.76
2022-08-24T05:48:02.519Z,1016.59
2022-08-24T05:50:02.169Z,1016.59
2022-08-24T05:52:01.964Z,1016.67
2022-08-24T05:54:02.224Z,1016.67
2022-08-24T05:56:02.426Z,1016.68
2022-08-24T05:58:02.565Z,1016.68
2022-08-24T06:00:05.104Z,1016.64
2022-08-24T06:02:02.400Z,1016.64
2022-08-24T06:04:02.487Z,1016.62
2022-08-24T06:06:02.089Z,1016.62
2022-08-24T06:08:01.832Z,1016.74
2022-08-24T06:10:36.973Z,1016.74
2022-08-24T06:12:02.156Z,1016.72
2022-08-24T06:14:07.883Z,1016.72
2022-08-24T06:16:22.110Z,1016.89
2022-08-24T06:18:02.202Z,1016.89
2022-08-24T06:20:01.994Z,1016.85
2022-08-24T06:22:01.816Z,1016.85
2022-08-24T06:24:01.949Z,1016.89
2022-08-24T06:26:02.066Z,1016.89
2022-08-24T06:28:02.526Z,1016.98
2022-08-24T06:30:02.216Z,1016.98
2022-08-24T06:32:02.503Z,1016.95
2022-08-24T06:34:02.468Z,1016.95
2022-08-24T06:36:03.403Z,1016.89
2022-08-24T06:38:02.932Z,1016.89
2022-08-24T06:40:01.993Z,1016.89
2022-08-24T06:42:02.034Z,1016.89
2022-08-24T06:44:02.122Z,1017.03
2022-08-24T06:46:01.994Z,1017.03
2022-08-24T06:48:02.163Z,1016.87
2022-08-24T06:50:03.062Z,1016.87
2022-08-24T06:52:02.046Z,1016.89
2022-08-24T06:54:01.676Z,1016.89
2022-08-24T06:56:02.044Z,1016.9
2022-08-24T06:58:01.595Z,1016.9
2022-08-24T07:00:05.409Z,1017.03
2022-08-24T07:02:02.647Z,1017.03
2022-08-24T07:04:01.860Z,1017.01
2022-08-24T07:06:02.399Z,1017.01
2022-08-24T07:08:02.018Z,1016.99
2022-08-24T07:10:01.653Z,1016.99
2022-08-24T07:12:02.334Z,1016.99
2022-08-24T07:14:01.761Z,1016.99
2022-08-24T07:16:02.144Z,1016.89
2022-08-24T07:18:01.915Z,1016.89
2022-08-24T07:20:02.593Z,1016.91
2022-08-24T07:22:02.105Z,1016.91
2022-08-24T07:24:02.491Z,1016.89
2022-08-24T07:26:06.653Z,1016.89
2022-08-24T07:28:03.891Z,1017.08
2022-08-24T07:30:27.837Z,1017.08
2022-08-24T07:32:02.453Z,1017.11
2022-08-24T07:34:01.866Z,1017.11
2022-08-24T07:36:02.573Z,1017.25
2022-08-24T07:38:02.501Z,1017.25
2022-08-24T07:40:02.386Z,1017.23
2022-08-24T07:42:19.067Z,1017.23
2022-08-24T07:44:02.252Z,1017.25
2022-08-24T07:46:01.923Z,1017.25
2022-08-24T07:50:02.058Z,1017.33
2022-08-24T07:52:02.068Z,1017.33
2022-08-24T07:54:01.810Z,1017.33
2022-08-24T07:56:02.082Z,1017.17
2022-08-24T07:58:02.077Z,1017.17
2022-08-24T08:00:05.379Z,1017.29
2022-08-24T08:02:02.487Z,1017.29
2022-08-24T08:04:01.681Z,1017.33
2022-08-24T08:06:02.548Z,1017.33
2022-08-24T08:08:02.202Z,1017.37
2022-08-24T08:10:02.298Z,1017.37
2022-08-24T08:12:01.718Z,1017.45
2022-08-24T08:14:02.541Z,1017.45
2022-08-24T08:16:08.553Z,1017.52
2022-08-24T08:18:02.220Z,1017.52
2022-08-24T08:20:01.729Z,1017.54
2022-08-24T08:22:01.814Z,1017.54
2022-08-24T08:24:03.370Z,1017.58
2022-08-24T08:26:02.094Z,1017.58
2022-08-24T08:28:25.716Z,1017.54
2022-08-24T08:30:01.874Z,1017.54
2022-08-24T08:32:01.615Z,1017.56
2022-08-24T08:34:01.886Z,1017.6
2022-08-24T08:36:02.311Z,1017.6
2022-08-24T08:38:02.942Z,1017.69
2022-08-24T08:40:02.274Z,1017.69
2022-08-24T08:42:01.729Z,1017.57
2022-08-24T08:44:02.269Z,1017.57
2022-08-24T08:46:02.664Z,1017.53
2022-08-24T08:50:02.544Z,1017.55
2022-08-24T08:52:02.123Z,1017.55
2022-08-24T08:54:02.120Z,1017.59
2022-08-24T08:56:02.298Z,1017.59
2022-08-24T08:58:01.670Z,1017.6
2022-08-24T09:00:02.731Z,1017.6
2022-08-24T09:02:02.370Z,1017.55
2022-08-24T09:04:02.093Z,1017.55
2022-08-24T09:06:02.215Z,1017.59
2022-08-24T09:08:02.711Z,1017.59
2022-08-24T09:10:02.269Z,1017.46
2022-08-24T09:12:02.191Z,1017.46
2022-08-24T09:14:01.877Z,1017.59
2022-08-24T09:16:01.605Z,1017.59
2022-08-24T09:18:02.860Z,1017.62
2022-08-24T09:20:02.441Z,1017.62
2022-08-24T09:22:01.623Z,1017.53
2022-08-24T09:24:02.002Z,1017.53
2022-08-24T09:26:02.285Z,1017.64
2022-08-24T09:28:02.515Z,1017.64
2022-08-24T09:30:02.581Z,1017.59
2022-08-24T09:32:02.644Z,1017.59
2022-08-24T09:34:01.803Z,1017.59
2022-08-24T09:36:02.184Z,1017.59
2022-08-24T09:38:02.161Z,1017.56
2022-08-24T09:40:03.380Z,1017.56
2022-08-24T09:42:02.319Z,1017.6
2022-08-24T09:44:03.969Z,1017.6
2022-08-24T09:46:02.158Z,1017.6
2022-08-24T09:48:01.646Z,1017.6
2022-08-24T09:50:02.426Z,1017.65
2022-08-24T09:52:02.079Z,1017.65
2022-08-24T09:54:02.300Z,1017.62
2022-08-24T09:56:01.797Z,1017.62
2022-08-24T09:58:02.456Z,1017.68
2022-08-24T10:00:05.513Z,1017.68
2022-08-24T10:02:01.669Z,1017.64
2022-08-24T10:04:02.538Z,1017.64
2022-08-24T10:06:02.778Z,1017.65
2022-08-24T10:08:02.397Z,1017.65
2022-08-24T10:10:02.390Z,1017.67
2022-08-24T10:12:01.973Z,1017.67
2022-08-24T10:14:02.310Z,1017.6
2022-08-24T10:16:02.366Z,1017.6
2022-08-24T10:18:02.214Z,1017.65
2022-08-24T10:20:02.356Z,1017.65
2022-08-24T10:22:02.147Z,1017.74
2022-08-24T10:24:02.182Z,1017.74
2022-08-24T10:26:01.743Z,1017.62
2022-08-24T10:28:02.223Z,1017.62
2022-08-24T10:30:01.948Z,1017.62
2022-08-24T10:32:02.790Z,1017.62
2022-08-24T10:34:02.357Z,1017.6
2022-08-24T10:36:01.810Z,1017.6
2022-08-24T10:38:02.627Z,1017.69
2022-08-24T10:40:09.731Z,1017.69
2022-08-24T10:42:02.750Z,1017.63
2022-08-24T10:44:02.066Z,1017.63
2022-08-24T10:46:01.966Z,1017.63
2022-08-24T10:48:01.736Z,1017.63
2022-08-24T10:50:02.060Z,1017.63
2022-08-24T10:52:02.162Z,1017.63
2022-08-24T10:54:01.813Z,1017.47
2022-08-24T10:56:01.963Z,1017.47
2022-08-24T10:58:02.126Z,1017.59
2022-08-24T11:00:08.076Z,1017.59
2022-08-24T11:02:12.689Z,1017.52
2022-08-24T11:04:01.860Z,1017.52
2022-08-24T11:06:02.580Z,1017.58
2022-08-24T11:08:01.878Z,1017.58
2022-08-24T11:10:01.960Z,1017.64
2022-08-24T11:12:01.833Z,1017.64
2022-08-24T11:14:02.311Z,1017.56
2022-08-24T11:16:02.670Z,1017.56
2022-08-24T11:18:02.315Z,1017.62
2022-08-24T11:20:02.065Z,1017.62
2022-08-24T11:22:02.352Z,1017.65
2022-08-24T11:24:02.120Z,1017.65
2022-08-24T11:26:02.392Z,1017.63
2022-08-24T11:28:01.762Z,1017.63
2022-08-24T11:30:01.750Z,1017.59
2022-08-24T11:32:01.651Z,1017.59
2022-08-24T11:34:02.019Z,1017.59
2022-08-24T11:36:02.472Z,1017.59
2022-08-24T11:38:02.085Z,1017.57
2022-08-24T11:40:02.657Z,1017.57
2022-08-24T11:42:01.626Z,1017.68
2022-08-24T11:44:01.823Z,1017.68
2022-08-24T11:46:04.443Z,1017.52
2022-08-24T11:48:03.862Z,1017.52
2022-08-24T11:50:02.288Z,1017.64
2022-08-24T11:52:01.997Z,1017.55
2022-08-24T11:54:02.837Z,1017.55
2022-08-24T11:56:01.949Z,1017.51
2022-08-24T11:58:02.458Z,1017.51
2022-08-24T12:00:04.822Z,1017.52
2022-08-24T12:02:02.205Z,1017.52
2022-08-24T12:04:02.389Z,1017.5
2022-08-24T12:06:02.423Z,1017.5
2022-08-24T12:08:01.717Z,1017.42
2022-08-24T12:10:02.566Z,1017.42
2022-08-24T12:12:02.083Z,1017.38
2022-08-24T12:14:02.144Z,1017.38
2022-08-24T12:16:02.200Z,1017.37
2022-08-24T12:18:02.708Z,1017.37
2022-08-24T12:20:02.440Z,1017.41
2022-08-24T12:22:01.939Z,1017.41
2022-08-24T12:24:01.770Z,1017.43
2022-08-24T12:26:02.172Z,1017.43
2022-08-24T12:28:02.662Z,1017.35
2022-08-24T12:30:06.042Z,1017.35
2022-08-24T12:32:02.085Z,1017.38
2022-08-24T12:34:02.235Z,1017.38
2022-08-24T12:36:02.424Z,1017.48
2022-08-24T12:38:02.268Z,1017.48
2022-08-24T12:40:02.674Z,1017.41
2022-08-24T12:42:01.765Z,1017.41
2022-08-24T12:44:02.180Z,1017.39
2022-08-24T12:46:02.434Z,1017.39
2022-08-24T12:48:02.573Z,1017.4
2022-08-24T12:50:02.538Z,1017.4
2022-08-24T12:52:02.583Z,1017.46
2022-08-24T12:54:02.187Z,1017.46
2022-08-24T12:56:02.501Z,1017.42
2022-08-24T12:58:01.715Z,1017.42
2022-08-24T13:00:05.608Z,1017.46
2022-08-24T13:02:01.967Z,1017.46
2022-08-24T13:04:02.087Z,1017.44
2022-08-24T13:06:01.672Z,1017.44
2022-08-24T13:08:02.353Z,1017.45
2022-08-24T13:10:02.470Z,1017.45
2022-08-24T13:12:01.632Z,1017.42
2022-08-24T13:14:01.654Z,1017.42
2022-08-24T13:16:03.696Z,1017.44
2022-08-24T13:18:03.841Z,1017.44
2022-08-24T13:20:02.624Z,1017.47
2022-08-24T13:22:02.037Z,1017.47
2022-08-24T13:24:02.301Z,1017.38
2022-08-24T13:26:02.133Z,1017.38
2022-08-24T13:28:01.631Z,1017.46
2022-08-24T13:30:02.643Z,1017.46
2022-08-24T13:32:01.952Z,1017.42
2022-08-24T13:34:02.413Z,1017.42
2022-08-24T13:36:01.759Z,1017.49
2022-08-24T13:38:03.207Z,1017.49
2022-08-24T13:40:02.402Z,1017.5
2022-08-24T13:42:01.621Z,1017.5
2022-08-24T13:44:01.706Z,1017.55
2022-08-24T13:46:02.447Z,1017.55
2022-08-24T13:48:02.604Z,1017.45
2022-08-24T13:50:01.942Z,1017.45
2022-08-24T13:52:02.289Z,1017.34
2022-08-24T13:54:01.984Z,1017.34
2022-08-24T13:56:01.727Z,1017.49
2022-08-24T13:58:02.511Z,1017.49
2022-08-24T14:00:05.344Z,1017.5
2022-08-24T14:02:02.510Z,1017.5
2022-08-24T14:04:02.043Z,1017.32
2022-08-24T14:06:02.094Z,1017.32
2022-08-24T14:08:02.730Z,1017.43
2022-08-24T14:10:02.142Z,1017.43
2022-08-24T14:12:07.445Z,1017.45
2022-08-24T14:14:02.584Z,1017.45
2022-08-24T14:16:02.628Z,1017.4
2022-08-24T14:18:02.132Z,1017.4
2022-08-24T14:20:01.866Z,1017.33
2022-08-24T14:22:01.852Z,1017.33
2022-08-24T14:24:01.879Z,1017.49
2022-08-24T14:26:02.235Z,1017.49
2022-08-24T14:28:02.576Z,1017.32
2022-08-24T14:30:02.555Z,1017.32
2022-08-24T14:32:12.959Z,1017.29
2022-08-24T14:34:02.450Z,1017.29
2022-08-24T14:36:01.584Z,1017.24
2022-08-24T14:38:01.958Z,1017.24
2022-08-24T14:40:02.624Z,1017.27
2022-08-24T14:42:01.770Z,1017.27
2022-08-24T14:44:01.972Z,1017.23
2022-08-24T14:46:02.283Z,1017.23
2022-08-24T14:48:01.784Z,1017.16
2022-08-24T14:50:01.657Z,1017.16
2022-08-24T14:52:01.605Z,1017.26
2022-08-24T14:54:01.715Z,1017.26
2022-08-24T14:56:02.090Z,1017.23
2022-08-24T14:58:02.850Z,1017.23
2022-08-24T15:00:05.399Z,1017.21
2022-08-24T15:02:01.609Z,1017.21
2022-08-24T15:04:02.309Z,1017.04
2022-08-24T15:06:27.916Z,1017.04
2022-08-24T15:08:02.308Z,1017.12
2022-08-24T15:10:01.811Z,1017.12
2022-08-24T15:12:02.345Z,1017.05
2022-08-24T15:14:01.770Z,1017.05
2022-08-24T15:16:02.413Z,1017.07
2022-08-24T15:18:09.523Z,1017.01
2022-08-24T15:20:02.047Z,1017.01
2022-08-24T15:22:02.404Z,1017.03
2022-08-24T15:24:02.085Z,1017.03
2022-08-24T15:26:02.916Z,1016.93
2022-08-24T15:28:02.962Z,1016.93
2022-08-24T15:30:02.589Z,1016.96
2022-08-24T15:32:02.474Z,1016.96
2022-08-24T15:34:01.768Z,1016.95
2022-08-24T15:36:02.002Z,1016.95
2022-08-24T15:38:03.012Z,1016.88
2022-08-24T15:40:02.306Z,1016.88
2022-08-24T15:42:02.292Z,1016.83
2022-08-24T15:44:01.868Z,1016.83
2022-08-24T15:46:02.660Z,1016.96
2022-08-24T15:48:02.920Z,1016.96
2022-08-24T15:50:02.534Z,1016.87
2022-08-24T15:52:01.849Z,1016.87
2022-08-24T15:54:02.031Z,1016.88
2022-08-24T15:56:01.581Z,1016.88
2022-08-24T15:58:01.569Z,1017.06
2022-08-24T16:00:05.696Z,1017.06
2022-08-24T16:02:01.713Z,1016.93
2022-08-24T16:04:02.621Z,1016.93
2022-08-24T16:06:02.548Z,1016.93
2022-08-24T16:08:01.887Z,1016.93
2022-08-24T16:10:02.556Z,1016.92
2022-08-24T16:12:02.460Z,1016.92
2022-08-24T16:14:03.931Z,1016.89
2022-08-24T16:16:02.298Z,1016.89
2022-08-24T16:18:02.613Z,1016.93
2022-08-24T16:20:01.982Z,1016.93
2022-08-24T16:22:02.107Z,1016.86
2022-08-24T16:24:02.365Z,1016.86
2022-08-24T16:26:01.710Z,1016.9
2022-08-24T16:28:06.596Z,1016.9
2022-08-24T16:30:02.094Z,1016.87
2022-08-24T16:32:02.832Z,1016.87
2022-08-24T16:34:01.811Z,1016.9
2022-08-24T16:36:03.680Z,1016.9
2022-08-24T16:38:02.468Z,1016.8
2022-08-24T16:40:02.298Z,1016.8
2022-08-24T16:42:04.056Z,1016.83
2022-08-24T16:44:01.804Z,1016.83
2022-08-24T16:46:02.328Z,1016.8
2022-08-24T16:48:03.109Z,1016.8
2022-08-24T16:50:02.515Z,1016.71
2022-08-24T16:52:01.948Z,1016.71
2022-08-24T16:54:02.297Z,1016.72
2022-08-24T16:56:02.521Z,1016.72
2022-08-24T16:58:02.117Z,1016.6
2022-08-24T17:00:05.268Z,1016.6
2022-08-24T17:02:02.467Z,1016.68
2022-08-24T17:04:02.151Z,1016.68
2022-08-24T17:06:02.349Z,1016.55
2022-08-24T17:08:02.534Z,1016.55
2022-08-24T17:10:02.228Z,1016.57
2022-08-24T17:12:01.738Z,1016.57
2022-08-24T17:14:02.146Z,1016.57
2022-08-24T17:16:01.791Z,1016.57
2022-08-24T17:18:01.631Z,1016.62
2022-08-24T17:20:01.897Z,1016.62
2022-08-24T17:22:01.988Z,1016.55
2022-08-24T17:24:02.051Z,1016.55
2022-08-24T17:26:01.795Z,1016.62
2022-08-24T17:28:02.724Z,1016.62
2022-08-24T17:30:01.864Z,1016.65
2022-08-24T17:32:02.490Z,1016.65
2022-08-24T17:34:02.428Z,1016.64
2022-08-24T17:36:01.845Z,1016.64
2022-08-24T17:38:02.145Z,1016.48
2022-08-24T17:40:02.495Z,1016.48
2022-08-24T17:42:01.932Z,1016.53
2022-08-24T17:44:01.842Z,1016.53
2022-08-24T17:46:02.561Z,1016.56
2022-08-24T17:48:02.486Z,1016.56
2022-08-24T17:50:06.691Z,1016.51
2022-08-24T17:52:02.206Z,1016.51
2022-08-24T17:54:02.481Z,1016.67
2022-08-24T17:56:02.049Z,1016.67
2022-08-24T17:58:02.479Z,1016.81
2022-08-24T18:00:06.613Z,1016.81
2022-08-24T18:02:01.689Z,1016.68
2022-08-24T18:04:02.566Z,1016.68
2022-08-24T18:06:01.706Z,1016.79
2022-08-24T18:08:01.601Z,1016.79
2022-08-24T18:10:01.882Z,1016.67
2022-08-24T18:12:01.812Z,1016.67
2022-08-24T18:14:02.320Z,1016.78
2022-08-24T18:16:02.303Z,1016.78
2022-08-24T18:18:01.593Z,1016.75
2022-08-24T18:20:02.167Z,1016.75
2022-08-24T18:22:02.407Z,1016.73
2022-08-24T18:24:02.108Z,1016.73
2022-08-24T18:26:02.441Z,1016.77
2022-08-24T18:28:01.625Z,1016.77
2022-08-24T18:30:03.491Z,1016.79
2022-08-24T18:32:01.781Z,1016.79
2022-08-24T18:34:02.098Z,1016.84
2022-08-24T18:36:02.119Z,1016.84
2022-08-24T18:38:02.476Z,1016.91
2022-08-24T18:40:02.118Z,1016.91
2022-08-24T18:42:01.683Z,1016.91
2022-08-24T18:44:02.115Z,1016.92
2022-08-24T18:46:02.042Z,1016.92
2022-08-24T18:48:02.190Z,1016.95
2022-08-24T18:50:01.906Z,1016.95
2022-08-24T18:52:02.362Z,1016.87
2022-08-24T18:54:01.856Z,1016.87
2022-08-24T18:56:12.783Z,1016.86
2022-08-24T18:58:01.948Z,1016.86
2022-08-24T19:00:05.861Z,1016.96
2022-08-24T19:02:02.542Z,1016.96
2022-08-24T19:04:14.273Z,1016.93
2022-08-24T19:06:02.030Z,1016.93
2022-08-24T19:08:01.643Z,1016.94
2022-08-24T19:10:01.951Z,1016.94
2022-08-24T19:12:02.402Z,1016.95
2022-08-24T19:14:01.950Z,1016.95
2022-08-24T19:16:02.288Z,1016.93
2022-08-24T19:18:01.587Z,1016.93
2022-08-24T19:20:02.532Z,1017.01
2022-08-24T19:22:01.925Z,1017.01
2022-08-24T19:24:02.201Z,1017.01
2022-08-24T19:26:01.802Z,1017.01
2022-08-24T19:28:02.174Z,1017.13
2022-08-24T19:30:02.538Z,1017.13
2022-08-24T19:32:02.313Z,1017.07
2022-08-24T19:34:03.942Z,1017.07
2022-08-24T19:36:02.576Z,1017.05
2022-08-24T19:38:02.833Z,1017.05
2022-08-24T19:40:02.754Z,1017.04
2022-08-24T19:42:02.074Z,1017.04
2022-08-24T19:44:02.423Z,1017.04
2022-08-24T19:46:02.371Z,1017.04
2022-08-24T19:48:01.861Z,1017.06
2022-08-24T19:50:02.669Z,1017.06
2022-08-24T19:52:02.268Z,1017.08
2022-08-24T19:54:02.393Z,1017.08
2022-08-24T19:56:05.541Z,1017.1
2022-08-24T19:58:01.967Z,1017.1
2022-08-24T20:00:05.694Z,1017.04
2022-08-24T20:02:01.943Z,1017.04
2022-08-24T20:04:02.116Z,1017.19
2022-08-24T20:06:01.900Z,1017.19
2022-08-24T20:08:02.117Z,1017.08
2022-08-24T20:10:13.268Z,1017.08
2022-08-24T20:12:01.930Z,1017.09
2022-08-24T20:14:02.378Z,1017.09
2022-08-24T20:16:02.362Z,1017.07
2022-08-24T20:18:02.103Z,1017.07
2022-08-24T20:20:02.323Z,1017.03
2022-08-24T20:22:13.863Z,1017.03
2022-08-24T20:24:01.971Z,1017.11
2022-08-24T20:26:02.019Z,1017.11
2022-08-24T20:28:30.063Z,1017.02
2022-08-24T20:30:02.499Z,1017.02
2022-08-24T20:32:02.540Z,1017.12
2022-08-24T20:34:02.072Z,1017.12
2022-08-24T20:36:02.582Z,1017.11
2022-08-24T20:38:02.021Z,1017.11
2022-08-24T20:40:02.446Z,1017.1
2022-08-24T20:42:02.403Z,1017.1
2022-08-24T20:44:01.754Z,1016.98
2022-08-24T20:46:01.935Z,1016.98
2022-08-24T20:48:02.244Z,1016.96
2022-08-24T20:50:02.609Z,1016.96
2022-08-24T20:52:01.723Z,1017.03
2022-08-24T20:54:01.827Z,1017.03
2022-08-24T20:56:01.926Z,1017.12
2022-08-24T20:58:01.974Z,1017.12
2022-08-24T21:00:05.009Z,1017
2022-08-24T21:02:02.017Z,1017
2022-08-24T21:04:05.889Z,1016.99
2022-08-24T21:06:01.607Z,1016.99
2022-08-24T21:08:01.850Z,1017.15
2022-08-24T21:10:02.521Z,1017.15
2022-08-24T21:12:02.010Z,1017.05
2022-08-24T21:14:01.704Z,1017.05
2022-08-24T21:16:02.315Z,1017.03
2022-08-24T21:18:02.411Z,1017.03
2022-08-24T21:20:02.313Z,1017.01
2022-08-24T21:22:02.392Z,1017.01
2022-08-24T21:24:02.207Z,1017.01
2022-08-24T21:26:01.997Z,1017.01
2022-08-24T21:28:02.307Z,1016.96
2022-08-24T21:30:02.072Z,1016.96
2022-08-24T21:32:02.478Z,1016.97
2022-08-24T21:34:01.712Z,1016.97
2022-08-24T21:36:03.317Z,1016.85
2022-08-24T21:38:02.270Z,1016.85
2022-08-24T21:40:01.943Z,1016.97
2022-08-24T21:42:02.135Z,1016.97
2022-08-24T21:44:01.580Z,1016.84
2022-08-24T21:46:01.850Z,1016.84
2022-08-24T21:48:02.187Z,1016.85
2022-08-24T21:50:01.931Z,1016.85
2022-08-24T21:52:02.013Z,1016.85
2022-08-24T21:54:02.465Z,1016.85
2022-08-24T21:56:02.488Z,1016.82
2022-08-24T21:58:02.099Z,1016.82
2022-08-24T22:00:02.073Z,1016.82
2022-08-24T22:02:01.826Z,1016.82
2022-08-24T22:04:02.027Z,1016.96
2022-08-24T22:06:01.573Z,1016.96
2022-08-24T22:08:02.067Z,1016.88
2022-08-24T22:10:01.963Z,1016.88
2022-08-24T22:12:01.696Z,1016.92
2022-08-24T22:14:02.501Z,1016.88
2022-08-24T22:16:02.425Z,1016.88
2022-08-24T22:18:01.682Z,1016.76
2022-08-24T22:20:01.906Z,1016.76
2022-08-24T22:22:02.520Z,1016.75
2022-08-24T22:24:02.353Z,1016.75
2022-08-24T22:26:02.228Z,1016.81
2022-08-24T22:28:02.310Z,1016.81
2022-08-24T22:30:01.962Z,1016.79
2022-08-24T22:32:02.005Z,1016.79
2022-08-24T22:34:01.967Z,1016.78
2022-08-24T22:36:01.584Z,1016.78
2022-08-24T22:38:04.886Z,1016.65
2022-08-24T22:40:02.451Z,1016.65
2022-08-24T22:42:02.314Z,1016.72
2022-08-24T22:44:01.703Z,1016.72
2022-08-24T22:46:02.607Z,1016.71
2022-08-24T22:48:01.969Z,1016.71
2022-08-24T22:50:02.273Z,1016.63
2022-08-24T22:52:01.731Z,1016.63
2022-08-24T22:54:02.362Z,1016.65
2022-08-24T22:56:02.579Z,1016.65
2022-08-24T22:58:02.144Z,1016.64
2022-08-24T23:00:04.835Z,1016.64
2022-08-24T23:02:02.059Z,1016.66
2022-08-24T23:04:02.531Z,1016.66
2022-08-24T23:06:01.898Z,1016.6
2022-08-24T23:08:01.867Z,1016.6
2022-08-24T23:10:02.265Z,1016.55
2022-08-24T23:12:01.813Z,1016.55
2022-08-24T23:14:02.193Z,1016.52
2022-08-24T23:16:02.094Z,1016.52
2022-08-24T23:18:02.227Z,1016.58
2022-08-24T23:20:02.318Z,1016.58
2022-08-24T23:22:02.565Z,1016.49
2022-08-24T23:24:01.934Z,1016.49
2022-08-24T23:26:01.992Z,1016.42
2022-08-24T23:28:02.270Z,1016.42
2022-08-24T23:30:01.821Z,1016.37
2022-08-24T23:32:01.731Z,1016.37
2022-08-24T23:34:02.366Z,1016.42
2022-08-24T23:36:01.978Z,1016.42
2022-08-24T23:38:02.444Z,1016.35
2022-08-24T23:40:02.634Z,1016.35
2022-08-24T23:42:01.688Z,1016.35
2022-08-24T23:44:02.152Z,1016.35
2022-08-24T23:46:02.725Z,1016.18
2022-08-24T23:48:01.888Z,1016.18
2022-08-24T23:50:02.038Z,1016.22
2022-08-24T23:52:01.668Z,1016.22
2022-08-24T23:54:01.790Z,1016.16
2022-08-24T23:56:02.010Z,1016.16
2022-08-24T23:58:02.411Z,1016.18
